createdAt,value
2022-12-08T00:01:57.734Z,100536.53
2022-12-08T00:04:26.313Z,100539.38
2022-12-08T00:07:13.202Z,100534.31
2022-12-08T00:09:42.374Z,100536.28
2022-12-08T00:12:13.466Z,100523.06
2022-12-08T00:14:44.632Z,100523.88
2022-12-08T00:17:15.309Z,100522.38
2022-12-08T00:19:43.869Z,100515.47
2022-12-08T00:22:15.562Z,100526.25
2022-12-08T00:24:46.743Z,100529.47
2022-12-08T00:27:15.997Z,100524.56
2022-12-08T00:29:45.845Z,100523.94
2022-12-08T00:32:14.083Z,100523.00
2022-12-08T00:34:42.775Z,100521.47
2022-12-08T00:37:10.933Z,100519.91
2022-12-08T00:39:40.305Z,100520.25
2022-12-08T00:42:14.608Z,100525.28
2022-12-08T00:44:45.322Z,100517.38
2022-12-08T00:47:14.640Z,100522.31
2022-12-08T00:49:44.185Z,100518.38
2022-12-08T00:52:13.244Z,100520.34
2022-12-08T00:54:41.807Z,100517.63
2022-12-08T00:57:10.355Z,100515.16
2022-12-08T00:59:40.323Z,100505.41
2022-12-08T01:02:08.412Z,100520.47
2022-12-08T01:04:38.832Z,100503.75
2022-12-08T01:07:07.054Z,100509.09
2022-12-08T01:09:35.553Z,100503.81
2022-12-08T01:12:03.797Z,100509.00
2022-12-08T01:14:32.413Z,100517.06
2022-12-08T01:17:00.595Z,100516.34
2022-12-08T01:19:29.265Z,100518.19
2022-12-08T01:21:57.554Z,100515.53
2022-12-08T01:24:26.885Z,100513.06
2022-12-08T01:26:55.042Z,100515.53
2022-12-08T01:29:23.552Z,100500.72
2022-12-08T01:31:51.722Z,100500.59
2022-12-08T01:34:20.093Z,100493.63
2022-12-08T01:36:48.423Z,100505.28
2022-12-08T01:39:18.455Z,100502.69
2022-12-08T01:41:47.952Z,100500.91
2022-12-08T01:44:16.192Z,100497.25
2022-12-08T01:46:46.122Z,100501.31
2022-12-08T01:49:23.305Z,100497.97
2022-12-08T01:52:12.272Z,100499.72
2022-12-08T01:54:48.078Z,100499.72
2022-12-08T01:57:24.091Z,100494.41
2022-12-08T02:00:02.880Z,100490.88
2022-12-08T02:03:01.032Z,100484.56
2022-12-08T02:05:34.556Z,100485.66
2022-12-08T02:08:07.013Z,100485.91
2022-12-08T02:10:38.633Z,100489.47
2022-12-08T02:13:13.346Z,100480.50
2022-12-08T02:15:41.846Z,100479.91
2022-12-08T02:18:28.594Z,100474.59
2022-12-08T02:21:13.687Z,100469.41
2022-12-08T02:23:50.780Z,100472.06
2022-12-08T02:26:38.551Z,100466.88
2022-12-08T02:29:27.998Z,100469.38
2022-12-08T02:32:12.594Z,100461.59
2022-12-08T02:34:59.762Z,100465.16
2022-12-08T02:37:28.161Z,100462.50
2022-12-08T02:40:04.573Z,100469.75
2022-12-08T02:42:38.841Z,100461.81
2022-12-08T02:45:09.569Z,100456.72
2022-12-08T02:47:39.816Z,100459.38
2022-12-08T02:50:08.613Z,100457.69
2022-12-08T02:52:43.341Z,100454.19
2022-12-08T02:55:28.531Z,100448.09
2022-12-08T02:58:16.231Z,100451.66
2022-12-08T03:01:09.445Z,100457.09
2022-12-08T03:03:52.606Z,100439.47
2022-12-08T03:06:39.616Z,100445.75
2022-12-08T03:09:17.960Z,100440.44
2022-12-08T03:11:57.023Z,100436.81
2022-12-08T03:14:25.809Z,100437.63
2022-12-08T03:16:56.289Z,100428.00
2022-12-08T03:19:29.232Z,100425.31
2022-12-08T03:22:03.489Z,100425.41
2022-12-08T03:24:37.044Z,100430.94
2022-12-08T03:27:09.290Z,100432.78
2022-12-08T03:29:38.064Z,100432.78
2022-12-08T03:32:13.449Z,100430.06
2022-12-08T03:34:44.690Z,100437.84
2022-12-08T03:37:14.020Z,100446.81
2022-12-08T03:39:43.189Z,100434.84
2022-12-08T03:42:11.528Z,100443.63
2022-12-08T03:44:41.194Z,100440.25
2022-12-08T03:47:09.410Z,100436.69
2022-12-08T03:49:38.101Z,100437.78
2022-12-08T03:52:06.443Z,100433.44
2022-12-08T03:54:36.270Z,100431.72
2022-12-08T03:57:04.551Z,100438.84
2022-12-08T03:59:33.902Z,100428.34
2022-12-08T04:02:02.230Z,100433.44
2022-12-08T04:04:31.389Z,100428.41
2022-12-08T04:06:59.651Z,100431.88
2022-12-08T04:09:28.251Z,100421.38
2022-12-08T04:11:56.531Z,100423.09
2022-12-08T04:14:26.323Z,100414.47
2022-12-08T04:16:54.549Z,100410.09
2022-12-08T04:19:23.114Z,100418.03
2022-12-08T04:21:52.160Z,100412.84
2022-12-08T04:24:20.818Z,100410.91
2022-12-08T04:26:50.269Z,100413.59
2022-12-08T04:29:18.968Z,100410.78
2022-12-08T04:31:47.251Z,100410.13
2022-12-08T04:34:17.099Z,100409.97
2022-12-08T04:36:45.380Z,100417.06
2022-12-08T04:39:13.900Z,100415.50
2022-12-08T04:41:42.099Z,100405.69
2022-12-08T04:44:10.721Z,100406.28
2022-12-08T04:46:43.116Z,100409.53
2022-12-08T04:49:13.511Z,100400.16
2022-12-08T04:51:42.370Z,100398.69
2022-12-08T04:54:10.991Z,100402.81
2022-12-08T04:56:39.241Z,100391.72
2022-12-08T04:59:07.802Z,100400.41
2022-12-08T05:01:36.095Z,100408.59
2022-12-08T05:04:04.969Z,100410.00
2022-12-08T05:06:33.213Z,100402.25
2022-12-08T05:09:01.870Z,100404.16
2022-12-08T05:11:30.101Z,100407.19
2022-12-08T05:13:58.760Z,100410.66
2022-12-08T05:16:27.037Z,100417.03
2022-12-08T05:18:55.670Z,100417.44
2022-12-08T05:21:24.767Z,100409.00
2022-12-08T05:23:53.456Z,100407.03
2022-12-08T05:26:21.619Z,100409.34
2022-12-08T05:28:50.159Z,100402.19
2022-12-08T05:31:18.474Z,100395.81
2022-12-08T05:33:47.138Z,100399.19
2022-12-08T05:36:16.470Z,100396.19
2022-12-08T05:38:45.534Z,100402.81
2022-12-08T05:41:15.999Z,100396.50
2022-12-08T05:43:45.201Z,100386.03
2022-12-08T05:46:14.409Z,100391.50
2022-12-08T05:48:43.432Z,100389.34
2022-12-08T05:51:22.598Z,100385.63
2022-12-08T05:53:52.423Z,100386.03
2022-12-08T05:56:21.453Z,100395.69
2022-12-08T05:58:50.479Z,100393.03
2022-12-08T06:01:32.143Z,100390.50
2022-12-08T06:04:02.192Z,100392.44
2022-12-08T06:06:31.005Z,100389.34
2022-12-08T06:08:59.552Z,100388.16
2022-12-08T06:11:29.886Z,100390.16
2022-12-08T06:13:59.300Z,100387.50
2022-12-08T06:16:28.278Z,100389.09
2022-12-08T06:18:57.220Z,100390.50
2022-12-08T06:21:25.552Z,100385.19
2022-12-08T06:23:55.060Z,100385.50
2022-12-08T06:26:23.829Z,100388.34
2022-12-08T06:28:53.580Z,100395.09
2022-12-08T06:31:26.579Z,100393.75
2022-12-08T06:33:55.769Z,100395.66
2022-12-08T06:36:26.374Z,100395.25
2022-12-08T06:38:55.403Z,100393.53
2022-12-08T06:41:24.504Z,100391.38
2022-12-08T06:43:57.442Z,100390.66
2022-12-08T06:46:25.832Z,100401.13
2022-12-08T06:48:54.612Z,100398.63
2022-12-08T06:51:25.820Z,100399.72
2022-12-08T06:53:55.419Z,100399.25
2022-12-08T06:56:28.279Z,100403.06
2022-12-08T06:58:56.952Z,100395.78
2022-12-08T07:01:26.117Z,100398.81
2022-12-08T07:03:54.744Z,100395.63
2022-12-08T07:06:24.549Z,100403.84
2022-12-08T07:08:53.237Z,100397.78
2022-12-08T07:11:22.830Z,100404.28
2022-12-08T07:13:52.158Z,100398.19
2022-12-08T07:16:20.447Z,100397.63
2022-12-08T07:18:49.426Z,100392.38
2022-12-08T07:21:18.211Z,100396.88
2022-12-08T07:23:52.702Z,100396.03
2022-12-08T07:26:27.402Z,100398.25
2022-12-08T07:28:55.935Z,100402.44
2022-12-08T07:31:25.655Z,100404.31
2022-12-08T07:33:57.422Z,100399.13
2022-12-08T07:36:26.201Z,100404.94
2022-12-08T07:38:54.820Z,100400.69
2022-12-08T07:41:24.515Z,100397.19
2022-12-08T07:43:54.542Z,100395.38
2022-12-08T07:46:24.491Z,100392.94
2022-12-08T07:48:54.182Z,100397.44
2022-12-08T07:51:22.340Z,100398.44
2022-12-08T07:53:54.183Z,100402.75
2022-12-08T07:56:23.354Z,100396.59
2022-12-08T07:58:52.013Z,100401.22
2022-12-08T08:01:26.285Z,100393.13
2022-12-08T08:03:57.083Z,100394.84
2022-12-08T08:06:25.430Z,100398.84
2022-12-08T08:08:55.091Z,100391.25
2022-12-08T08:11:23.950Z,100400.81
2022-12-08T08:13:53.923Z,100393.16
2022-12-08T08:16:22.137Z,100391.25
2022-12-08T08:18:51.791Z,100391.44
2022-12-08T08:24:09.643Z,100383.41
2022-12-08T08:26:38.190Z,100385.03
2022-12-08T08:29:06.722Z,100387.97
2022-12-08T08:31:34.832Z,100382.94
2022-12-08T08:34:06.612Z,100378.22
2022-12-08T08:36:35.002Z,100385.91
2022-12-08T08:39:04.835Z,100387.81
2022-12-08T08:41:33.546Z,100391.47
2022-12-08T08:44:02.065Z,100384.63
2022-12-08T08:46:30.320Z,100385.78
2022-12-08T08:48:59.022Z,100381.06
2022-12-08T08:51:27.125Z,100385.78
2022-12-08T08:53:55.653Z,100383.13
2022-12-08T08:56:24.443Z,100393.03
2022-12-08T08:58:54.414Z,100389.38
2022-12-08T09:01:25.948Z,100392.41
2022-12-08T09:03:55.279Z,100398.34
2022-12-08T09:06:24.702Z,100397.06
2022-12-08T09:08:53.208Z,100400.66
2022-12-08T09:11:23.633Z,100395.56
2022-12-08T09:13:54.293Z,100392.19
2022-12-08T09:16:23.114Z,100393.22
2022-12-08T09:18:51.840Z,100390.72
2022-12-08T09:21:23.253Z,100402.81
2022-12-08T09:23:56.193Z,100402.44
2022-12-08T09:26:27.127Z,100397.88
2022-12-08T09:28:56.676Z,100407.84
2022-12-08T09:31:25.226Z,100400.03
2022-12-08T09:33:54.867Z,100403.81
2022-12-08T09:36:23.155Z,100407.53
2022-12-08T09:38:53.926Z,100398.31
2022-12-08T09:41:48.540Z,100406.50
2022-12-08T09:44:42.399Z,100401.44
2022-12-08T09:47:27.484Z,100391.66
2022-12-08T09:50:39.688Z,100397.34
2022-12-08T09:53:17.262Z,100396.72
2022-12-08T09:56:06.561Z,100398.66
2022-12-08T09:58:45.540Z,100391.31
2022-12-08T10:01:14.350Z,100387.28
2022-12-08T10:03:42.992Z,100390.13
2022-12-08T10:06:36.420Z,100390.16
2022-12-08T10:09:46.592Z,100379.56
2022-12-08T10:12:15.096Z,100384.75
2022-12-08T10:14:56.203Z,100374.34
2022-12-08T10:17:28.350Z,100383.16
2022-12-08T10:20:03.885Z,100376.13
2022-12-08T10:22:38.681Z,100383.16
2022-12-08T10:25:19.561Z,100385.03
2022-12-08T10:27:53.239Z,100384.28
2022-12-08T10:30:22.475Z,100366.00
2022-12-08T10:32:53.350Z,100377.25
2022-12-08T10:35:23.441Z,100371.09
2022-12-08T10:37:57.706Z,100369.09
2022-12-08T10:40:37.997Z,100367.13
2022-12-08T10:43:21.252Z,100362.97
2022-12-08T10:45:49.523Z,100363.06
2022-12-08T10:48:27.236Z,100346.59
2022-12-08T10:50:59.051Z,100346.16
2022-12-08T10:53:28.862Z,100340.06
2022-12-08T10:56:03.039Z,100333.03
2022-12-08T10:58:36.380Z,100335.81
2022-12-08T11:01:10.555Z,100332.78
2022-12-08T11:03:52.908Z,100339.34
2022-12-08T11:06:36.419Z,100329.84
2022-12-08T11:09:25.492Z,100334.91
2022-12-08T11:11:57.474Z,100333.16
2022-12-08T11:14:45.131Z,100341.44
2022-12-08T11:17:22.323Z,100328.22
2022-12-08T11:20:08.919Z,100331.03
2022-12-08T11:22:42.632Z,100341.38
2022-12-08T11:25:27.244Z,100333.50
2022-12-08T11:28:00.600Z,100334.28
2022-12-08T11:30:38.519Z,100333.56
2022-12-08T11:33:19.949Z,100328.91
2022-12-08T11:36:03.191Z,100321.06
2022-12-08T11:38:32.751Z,100320.28
2022-12-08T11:41:07.456Z,100326.38
2022-12-08T11:43:55.150Z,100317.81
2022-12-08T11:46:49.603Z,100314.97
2022-12-08T11:49:19.143Z,100325.19
2022-12-08T11:51:57.524Z,100323.97
2022-12-08T11:54:35.799Z,100317.66
2022-12-08T11:57:08.252Z,100313.41
2022-12-08T11:59:40.083Z,100305.28
2022-12-08T12:02:27.073Z,100304.66
2022-12-08T12:05:07.726Z,100314.06
2022-12-08T12:08:02.114Z,100304.81
2022-12-08T12:10:36.363Z,100300.63
2022-12-08T12:13:23.438Z,100304.22
2022-12-08T12:16:13.497Z,100292.00
2022-12-08T12:19:02.920Z,100282.31
2022-12-08T12:21:35.544Z,100277.47
2022-12-08T12:24:11.332Z,100273.94
2022-12-08T12:26:54.687Z,100272.53
2022-12-08T12:29:28.376Z,100269.31
2022-12-08T12:32:00.527Z,100279.19
2022-12-08T12:34:34.696Z,100273.19
2022-12-08T12:37:11.380Z,100267.88
2022-12-08T12:39:57.731Z,100264.56
2022-12-08T12:42:49.702Z,100259.66
2022-12-08T12:45:18.263Z,100260.16
2022-12-08T12:47:56.598Z,100255.25
2022-12-08T12:50:34.522Z,100259.19
2022-12-08T12:53:13.599Z,100252.66
2022-12-08T12:56:00.497Z,100250.22
2022-12-08T12:58:28.743Z,100255.53
2022-12-08T13:01:15.492Z,100248.56
2022-12-08T13:03:47.640Z,100241.91
2022-12-08T13:06:38.047Z,100248.09
2022-12-08T13:09:08.357Z,100242.19
2022-12-08T13:11:48.054Z,100243.13
2022-12-08T13:14:30.122Z,100242.47
2022-12-08T13:17:00.637Z,100247.97
2022-12-08T13:19:32.319Z,100245.50
2022-12-08T13:22:01.563Z,100242.13
2022-12-08T13:24:33.788Z,100233.56
2022-12-08T13:27:05.440Z,100242.47
2022-12-08T13:29:38.814Z,100231.13
2022-12-08T13:32:09.395Z,100234.50
2022-12-08T13:34:53.643Z,100232.84
2022-12-08T13:37:54.333Z,100229.47
2022-12-08T13:40:26.194Z,100221.63
2022-12-08T13:43:13.843Z,100232.69
2022-12-08T13:46:52.969Z,100225.56
2022-12-08T13:56:16.753Z,100227.53
2022-12-08T13:57:34.894Z,100220.75
2022-12-08T14:00:07.946Z,100222.41
2022-12-08T14:02:47.711Z,100232.50
2022-12-08T14:05:30.056Z,100226.66
2022-12-08T14:08:36.305Z,100232.09
2022-12-08T14:11:33.833Z,100235.94
2022-12-08T14:14:09.472Z,100233.28
2022-12-08T14:16:41.010Z,100223.09
2022-12-08T14:19:20.372Z,100217.25
2022-12-08T14:21:57.041Z,100225.34
2022-12-08T14:24:27.142Z,100231.63
2022-12-08T14:27:01.554Z,100228.16
2022-12-08T14:29:50.660Z,100235.19
2022-12-08T14:32:34.963Z,100235.19
2022-12-08T14:35:09.102Z,100239.22
2022-12-08T14:38:12.718Z,100234.97
2022-12-08T14:40:43.963Z,100233.84
2022-12-08T14:43:15.183Z,100233.19
2022-12-08T14:45:43.502Z,100227.47
2022-12-08T14:48:38.913Z,100237.34
2022-12-08T14:51:13.624Z,100244.47
2022-12-08T14:53:48.139Z,100254.13
2022-12-08T14:56:39.819Z,100246.19
2022-12-08T14:59:13.507Z,100242.00
2022-12-08T15:01:43.183Z,100250.16
2022-12-08T15:04:15.194Z,100248.78
2022-12-08T15:07:07.178Z,100246.84
2022-12-08T15:09:47.452Z,100267.44
2022-12-08T15:12:15.887Z,100264.09
2022-12-08T15:14:56.523Z,100259.19
2022-12-08T15:17:50.423Z,100268.19
2022-12-08T15:20:45.162Z,100272.41
2022-12-08T15:23:28.173Z,100271.88
2022-12-08T15:25:57.892Z,100271.34
2022-12-08T15:28:30.219Z,100264.84
2022-12-08T15:30:59.649Z,100272.16
2022-12-08T15:33:28.248Z,100276.72
2022-12-08T15:35:57.965Z,100274.59
2022-12-08T15:38:31.704Z,100266.56
2022-12-08T15:41:00.824Z,100271.34
2022-12-08T15:43:32.113Z,100272.88
2022-12-08T15:46:00.732Z,100269.31
2022-12-08T15:48:30.145Z,100273.97
2022-12-08T15:50:59.051Z,100266.22
2022-12-08T15:53:27.223Z,100263.72
2022-12-08T15:56:27.091Z,100263.78
2022-12-08T15:58:53.719Z,100267.13
2022-12-08T16:01:24.160Z,100277.50
2022-12-08T16:04:36.778Z,100276.69
2022-12-08T16:09:39.004Z,100275.09
2022-12-08T16:18:17.356Z,100279.59
2022-12-08T16:23:42.982Z,100285.03
2022-12-08T16:26:44.391Z,100282.75
2022-12-08T16:29:07.038Z,100281.59
2022-12-08T16:31:35.788Z,100280.84
2022-12-08T16:34:04.476Z,100278.50
2022-12-08T16:36:32.870Z,100276.50
2022-12-08T16:39:01.443Z,100274.03
2022-12-08T16:41:48.499Z,100271.06
2022-12-08T16:44:18.149Z,100265.31
2022-12-08T16:46:46.483Z,100254.53
2022-12-08T16:49:15.827Z,100257.72
2022-12-08T16:51:44.241Z,100250.09
2022-12-08T16:54:12.893Z,100252.53
2022-12-08T16:56:41.214Z,100247.91
2022-12-08T16:59:09.847Z,100259.31
2022-12-08T17:01:38.232Z,100252.00
2022-12-08T17:04:30.624Z,100252.66
2022-12-08T17:06:55.289Z,100254.69
2022-12-08T17:09:24.741Z,100266.44
2022-12-08T17:11:53.056Z,100270.53
2022-12-08T17:14:22.788Z,100276.25
2022-12-08T17:16:51.344Z,100282.06
2022-12-08T17:19:20.139Z,100288.84
2022-12-08T17:21:48.497Z,100280.50
2022-12-08T17:24:21.904Z,100283.09
2022-12-08T17:26:52.179Z,100275.56
2022-12-08T17:29:22.368Z,100282.22
2022-12-08T17:31:51.747Z,100277.78
2022-12-08T17:34:21.655Z,100276.03
2022-12-08T17:36:50.287Z,100281.44
2022-12-08T17:39:19.489Z,100278.41
2022-12-08T17:41:48.183Z,100274.63
2022-12-08T17:44:19.090Z,100273.28
2022-12-08T17:46:52.537Z,100275.66
2022-12-08T17:49:30.483Z,100289.47
2022-12-08T17:52:04.052Z,100283.84
2022-12-08T17:54:34.388Z,100279.28
2022-12-08T17:57:02.911Z,100274.91
2022-12-08T17:59:31.860Z,100267.06
2022-12-08T18:02:00.394Z,100278.00
2022-12-08T18:04:29.278Z,100268.78
2022-12-08T18:07:00.532Z,100276.00
2022-12-08T18:09:31.319Z,100273.34
2022-12-08T18:12:00.074Z,100270.34
2022-12-08T18:14:29.314Z,100270.00
2022-12-08T18:16:57.681Z,100275.44
2022-12-08T18:19:26.607Z,100268.66
2022-12-08T18:21:54.908Z,100281.28
2022-12-08T18:24:24.085Z,100275.69
2022-12-08T18:26:52.877Z,100275.09
2022-12-08T18:29:23.968Z,100281.22
2022-12-08T18:31:53.202Z,100283.97
2022-12-08T18:34:22.008Z,100270.22
2022-12-08T18:36:50.330Z,100280.03
2022-12-08T18:39:25.742Z,100279.50
2022-12-08T18:41:54.186Z,100274.47
2022-12-08T18:44:24.313Z,100279.47
2022-12-08T18:46:53.304Z,100285.47
2022-12-08T18:49:23.279Z,100284.94
2022-12-08T18:51:51.599Z,100286.97
2022-12-08T18:54:22.146Z,100298.50
2022-12-08T18:56:55.930Z,100296.31
2022-12-08T18:59:25.528Z,100293.72
2022-12-08T19:01:53.707Z,100293.88
2022-12-08T19:04:29.921Z,100298.34
2022-12-08T19:06:58.993Z,100286.75
2022-12-08T19:09:29.177Z,100275.88
2022-12-08T19:11:57.815Z,100277.25
2022-12-08T19:14:28.809Z,100291.50
2022-12-08T19:16:57.956Z,100289.59
2022-12-08T19:19:27.596Z,100287.97
2022-12-08T19:21:56.740Z,100286.31
2022-12-08T19:24:25.569Z,100290.94
2022-12-08T19:26:53.840Z,100290.19
2022-12-08T19:29:22.408Z,100290.44
2022-12-08T19:31:50.930Z,100294.13
2022-12-08T19:34:19.920Z,100297.91
2022-12-08T19:36:48.472Z,100291.03
2022-12-08T19:39:37.938Z,100287.97
2022-12-08T19:42:45.136Z,100288.28
2022-12-08T19:45:17.483Z,100286.19
2022-12-08T19:47:45.912Z,100284.88
2022-12-08T19:50:35.833Z,100278.41
2022-12-08T19:53:09.946Z,100279.25
2022-12-08T19:55:38.685Z,100284.19
2022-12-08T19:58:07.238Z,100271.97
2022-12-08T20:00:38.615Z,100276.91
2022-12-08T20:03:07.776Z,100276.75
2022-12-08T20:05:37.251Z,100278.88
2022-12-08T20:08:06.277Z,100282.00
2022-12-08T20:10:39.168Z,100280.28
2022-12-08T20:13:27.237Z,100277.63
2022-12-08T20:15:57.959Z,100273.47
2022-12-08T20:18:26.278Z,100262.44
2022-12-08T20:20:55.097Z,100247.34
2022-12-08T20:23:23.614Z,100251.56
2022-12-08T20:25:52.441Z,100250.25
2022-12-08T20:28:20.912Z,100258.94
2022-12-08T20:30:49.532Z,100268.56
2022-12-08T20:33:19.315Z,100273.53
2022-12-08T20:35:48.693Z,100273.75
2022-12-08T20:38:17.421Z,100268.28
2022-12-08T20:40:47.720Z,100269.75
2022-12-08T20:43:16.205Z,100270.59
2022-12-08T20:45:44.481Z,100267.75
2022-12-08T20:48:14.164Z,100268.69
2022-12-08T20:50:43.172Z,100269.63
2022-12-08T20:53:11.849Z,100267.09
2022-12-08T20:55:43.004Z,100274.53
2022-12-08T20:58:12.322Z,100268.28
2022-12-08T21:00:40.759Z,100272.06
2022-12-08T21:03:09.807Z,100262.59
2022-12-08T21:05:39.091Z,100259.16
2022-12-08T21:08:08.100Z,100256.72
2022-12-08T21:10:42.199Z,100259.59
2022-12-08T21:13:13.619Z,100260.47
2022-12-08T21:15:46.057Z,100262.75
2022-12-08T21:18:17.106Z,100266.56
2022-12-08T21:20:45.513Z,100262.38
2022-12-08T21:23:14.384Z,100262.75
2022-12-08T21:25:44.885Z,100260.31
2022-12-08T21:28:15.687Z,100269.63
2022-12-08T21:30:45.938Z,100279.78
2022-12-08T21:33:14.831Z,100287.94
2022-12-08T21:35:44.041Z,100288.13
2022-12-08T21:38:12.759Z,100280.81
2022-12-08T21:40:40.988Z,100285.75
2022-12-08T21:43:09.749Z,100277.53
2022-12-08T21:45:38.378Z,100281.66
2022-12-08T21:48:11.990Z,100283.06
2022-12-08T21:50:40.831Z,100285.50
2022-12-08T21:53:09.821Z,100283.53
2022-12-08T21:55:39.165Z,100298.25
2022-12-08T21:58:07.899Z,100296.00
2022-12-08T22:00:36.360Z,100298.09
2022-12-08T22:03:06.829Z,100296.66
2022-12-08T22:05:36.180Z,100301.41
2022-12-08T22:08:06.138Z,100289.34
2022-12-08T22:10:34.972Z,100287.16
2022-12-08T22:13:03.654Z,100285.44
2022-12-08T22:15:33.139Z,100289.19
2022-12-08T22:18:02.055Z,100290.28
2022-12-08T22:20:30.498Z,100291.06
2022-12-08T22:22:59.388Z,100296.84
2022-12-08T22:25:28.033Z,100299.06
2022-12-08T22:27:56.642Z,100304.44
2022-12-08T22:30:25.136Z,100300.34
2022-12-08T22:32:54.189Z,100298.81
2022-12-08T22:35:22.944Z,100294.81
2022-12-08T22:37:51.705Z,100300.19
2022-12-08T22:40:20.162Z,100308.50
2022-12-08T22:42:48.804Z,100295.38
2022-12-08T22:45:17.104Z,100298.34
2022-12-08T22:47:45.823Z,100297.53
2022-12-08T22:50:14.156Z,100295.06
2022-12-08T22:52:42.634Z,100294.41
2022-12-08T22:55:10.767Z,100287.66
2022-12-08T22:57:40.586Z,100289.69
2022-12-08T23:00:11.952Z,100289.84
2022-12-08T23:02:40.823Z,100286.41
2022-12-08T23:05:09.826Z,100289.25
2022-12-08T23:07:39.543Z,100284.16
2022-12-08T23:10:09.622Z,100288.13
2022-12-08T23:12:39.335Z,100283.75
2022-12-08T23:15:08.274Z,100282.88
2022-12-08T23:17:37.246Z,100276.13
2022-12-08T23:20:07.100Z,100275.34
2022-12-08T23:22:36.104Z,100267.53
2022-12-08T23:25:05.264Z,100264.22
2022-12-08T23:27:34.341Z,100262.72
2022-12-08T23:30:06.016Z,100268.97
2022-12-08T23:32:35.058Z,100263.72
2022-12-08T23:35:04.615Z,100265.31
2022-12-08T23:37:33.175Z,100249.09
2022-12-08T23:40:01.502Z,100253.09
2022-12-08T23:42:30.673Z,100241.91
2022-12-08T23:44:59.053Z,100243.72
2022-12-08T23:47:28.990Z,100243.66
2022-12-08T23:49:57.736Z,100234.31
2022-12-08T23:52:27.187Z,100228.00
2022-12-08T23:54:56.123Z,100223.97
2022-12-08T23:57:25.003Z,100220.72
2022-12-08T23:59:53.517Z,100216.06
